Flight Track Log - Related Links

Times and Time Zones

All times are in EDT time to prevent confusion due to time zone crossing. See the TMC855 flight status page for this flight to view local times or setup timezone preferences in your user account.

Time Position Orientation Groundspeed Altitude Reporting Facility
EDT Latitude Longitude Course Direction KTS MPH feet Rate Location/Type
Thu 06:29:57 PM 40.8333 -74.0833 255° West 186 214 1,300  Level New York TRACON
Thu 06:30:57 PM 40.8167 -74.1667 255° West 227 261 2,100 2,050 Climbing New York TRACON
Thu 06:31:57 PM 40.8167 -74.2500 270° West 233 268 5,400 3,600 Climbing New York TRACON
Thu 06:32:57 PM 40.8167 -74.3500 270° West 255 293 9,300 2,490 Climbing New York TRACON
Thu 06:35:17 PM 40.8294 -74.5775 274° West 289 333 13,700 1,417 Climbing New York Center
Thu 06:36:16 PM 40.8281 -74.6789 269° West 300 345 14,000 151 Climbing New York Center
Thu 06:37:16 PM 40.8261 -74.8050 269° West 312 359 14,000  Level New York Center
Thu 06:38:17 PM 40.8242 -74.9200 269° West 312 359 14,000 50 Level New York Center
Thu 06:39:15 PM 40.8222 -75.0325 269° West 312 359 14,100 -33 Climbing New York Center
Thu 06:41:17 PM 40.7753 -75.2322 253° West 307 353 13,900 -66 Descending New York Center
Thu 06:42:17 PM 40.7317 -75.3361 241° Southwest 302 348 13,900  Level New York Center
Thu 06:43:15 PM 40.6883 -75.4292 238° Southwest 302 348 13,900  Level New York Center
Thu 06:44:16 PM 40.6492 -75.5250 242° Southwest 302 348 13,900 -248 Level New York Center
Thu 06:45:16 PM 40.6100 -75.6206 242° Southwest 302 348 13,400 -893 Descending New York Center
Thu 06:46:17 PM 40.5703 -75.7244 243° Southwest 307 353 12,100 -1,438 Descending New York Center
Thu 06:47:17 PM 40.5475 -75.8183 252° West 313 360 10,500 -1,475 Descending New York Center
Thu 06:48:15 PM 40.5200 -75.9200 250° West 283 326 9,200 -763 Descending New York Center
Thu 06:49:15 PM 40.4975 -76.0058 251° West 261 300 9,000 -99 Descending New York Center
Thu 06:50:16 PM 40.4750 -76.0942 252° West 261 300 9,000  Level New York Center
Thu 06:51:16 PM 40.4547 -76.1689 250° West 261 300 9,000  Level New York Center
Thu 06:52:18 PM 40.4278 -76.2594 249° West 248 285 9,000 -504 Level New York Center
Thu 06:53:15 PM 40.3950 -76.3358 241° Southwest 242 278 8,000 -1,436 Descending New York Center
Thu 06:54:15 PM 40.3442 -76.3944 221° Southwest 243 280 6,200 -984 Descending New York Center
Thu 06:55:17 PM 40.2981 -76.4453 220° Southwest 249 287 6,000 -100 Descending New York Center
Thu 06:56:15 PM 40.2406 -76.5111 221° Southwest 249 287 6,000  Level New York Center
Thu 06:57:16 PM 40.1858 -76.5692 219° Southwest 249 287 6,000  Level New York Center
Thu 06:58:15 PM 40.1392 -76.6250 222° Southwest 249 287 6,000 -857 Level New York Center
Thu 06:59:15 PM 40.0839 -76.6883 221° Southwest 249 287 4,300 -1,300 Descending New York Center
Thu 07:00:15 PM 40.0439 -76.7364 223° Southwest 239 275 3,400 -694 Descending New York Center
Thu 07:01:16 PM 39.9953 -76.7892 220° Southwest 218 251 2,900 -639 Descending New York Center
Thu 07:02:17 PM 39.9803 -76.8419 250° West 187 215 2,100 -850 Descending New York Center
Thu 07:03:16 PM 39.9567 -76.8914 238° Southwest 159 183 1,200 -915 Descending New York Center
Thu 07:05:00 PM 39.9167 -76.8667 224° Southwest  Level FlightAware Approximate
Thu 07:12:00 PM 39.9170 -76.8730 224° Southwest  Level Estimated

Login

Don't have an account? Register now (free) for customized features, flight alerts, and more!